Time;durP1;ratioP1;P1;durP2;ratioP2;P2;SDS_P1;SDS_P2;PMS_P1;PMS_P2;Temp;Humidity;BMP_temperature;BMP_pressure;BME280_temperature;BME280_humidity;BME280_pressure;Samples;Min_cycle;Max_cycle;Signal;HPM_P1;HPM_P2
2021/04/03 00:00:41;;;;;;;2.10;0.80;;;;;;;13.16;79.10;96971.16;5074771;28;20411;-86
2021/04/03 00:03:08;;;;;;;1.95;1.15;;;;;;;13.10;79.06;96971.66;5057622;28;20035;-86
2021/04/03 00:05:34;;;;;;;1.20;1.02;;;;;;;13.04;78.83;96964.06;5057665;28;20056;-86
2021/04/03 00:08:00;;;;;;;1.50;0.80;;;;;;;13.10;79.88;96963.59;5074726;28;20036;-86
2021/04/03 00:10:31;;;;;;;1.55;1.45;;;;;;;13.10;78.14;96954.69;5057586;28;20027;-86
2021/04/03 00:12:57;;;;;;;2.55;1.45;;;;;;;13.03;77.16;96959.66;5057552;28;20039;-86
2021/04/03 00:15:23;;;;;;;3.58;1.98;;;;;;;12.99;76.23;96958.19;5074314;28;20418;-86
2021/04/03 00:17:49;;;;;;;1.90;1.20;;;;;;;12.94;77.41;96952.34;5057807;28;20059;-86
2021/04/03 00:20:16;;;;;;;0.57;0.57;;;;;;;12.96;75.90;96953.06;5074554;28;20036;-86
2021/04/03 00:22:43;;;;;;;1.13;0.82;;;;;;;12.90;77.13;96953.56;5091525;28;20027;-86
2021/04/03 00:25:09;;;;;;;0.80;0.80;;;;;;;12.89;77.04;96947.34;5090780;28;20039;-86
2021/04/03 00:27:35;;;;;;;3.00;1.73;;;;;;;12.79;79.16;96941.03;5057256;28;20557;-87
2021/04/03 00:30:14;;;;;;;8.27;1.52;;;;;;;12.92;74.55;96938.22;5091091;28;20032;-86
2021/04/03 00:32:50;;;;;;;2.65;1.38;;;;;;;13.00;73.53;96930.38;5076187;28;20158;-87
2021/04/03 00:35:18;;;;;;;3.65;2.00;;;;;;;13.05;73.13;96944.28;5091020;28;20102;-86
2021/04/03 00:37:44;;;;;;;1.50;1.00;;;;;;;13.02;76.82;96937.31;5056867;28;20115;-87
2021/04/03 00:40:14;;;;;;;1.58;1.23;;;;;;;12.99;77.99;96931.34;5074224;28;20108;-87
2021/04/03 00:42:40;;;;;;;1.17;1.08;;;;;;;12.88;79.17;96926.88;5057969;28;20036;-87
2021/04/03 00:45:06;;;;;;;8.50;2.22;;;;;;;12.82;80.50;96921.13;5057424;28;20032;-87
2021/04/03 00:47:32;;;;;;;1.90;1.20;;;;;;;12.76;79.43;96921.63;5090792;28;20475;-87
2021/04/03 00:49:58;;;;;;;1.23;0.95;;;;;;;12.70;80.78;96922.13;5074189;28;20102;-87
2021/04/03 00:52:23;;;;;;;2.90;1.88;;;;;;;12.69;80.61;96917.72;5073222;28;20096;-87
2021/04/03 00:54:49;;;;;;;3.97;1.20;;;;;;;12.63;82.56;96926.28;5057106;28;20090;-87
2021/04/03 00:57:15;;;;;;;4.25;1.10;;;;;;;12.42;82.76;96923.47;5056989;28;20403;-87
2021/04/03 00:59:40;;;;;;;1.90;1.67;;;;;;;12.18;84.65;96907.47;5074092;28;20070;-87
2021/04/03 01:02:06;;;;;;;0.80;0.80;;;;;;;12.11;85.25;96916.13;5057075;28;20028;-86
2021/04/03 01:04:33;;;;;;;4.63;2.00;;;;;;;11.99;86.74;96915.28;5057500;28;20023;-86
2021/04/03 01:06:59;;;;;;;1.17;1.08;;;;;;;11.93;87.16;96911.22;5058908;28;20036;-87
2021/04/03 01:09:25;;;;;;;1.83;1.10;;;;;;;11.79;87.27;96913.25;5057655;28;20567;-87
2021/04/03 01:12:05;;;;;;;0.95;0.65;;;;;;;11.77;88.59;96908.03;5057297;28;20028;-87
2021/04/03 01:14:39;;;;;;;3.33;0.65;;;;;;;11.76;87.92;96918.84;5056988;28;20502;-87
2021/04/03 01:17:18;;;;;;;1.17;1.02;;;;;;;11.70;88.04;96914.81;5073722;28;20135;-87
2021/04/03 01:20:12;;;;;;;26.08;14.95;;;;;;;11.64;89.94;96909.91;5056751;28;20024;-87
2021/04/03 01:23:10;;;;;;;;;;;;;;;11.65;89.95;96908.09;5057422;28;20119;-87
2021/04/03 01:25:49;;;;;;;35.35;16.50;;;;;;;11.57;90.43;96894.41;5040167;28;20367;-87
2021/04/03 01:28:43;;;;;;;28.48;15.43;;;;;;;11.57;90.80;96899.75;5073754;28;20077;-86
2021/04/03 01:31:10;;;;;;;24.45;14.90;;;;;;;11.56;89.14;96896.25;5057281;28;20060;-87
2021/04/03 01:33:42;;;;;;;30.52;16.60;;;;;;;11.63;90.02;96892.13;5056692;28;20040;-86
2021/04/03 01:36:17;;;;;;;34.38;14.75;;;;;;;11.68;86.22;96891.78;5073279;28;20476;-87
2021/04/03 01:38:47;;;;;;;20.98;13.68;;;;;;;11.77;83.27;96872.34;5048764;28;20020;-87
2021/04/03 01:41:14;;;;;;;28.20;15.30;;;;;;;11.84;83.36;96884.31;5056732;28;20054;-87
2021/04/03 01:43:43;;;;;;;26.70;15.10;;;;;;;11.83;84.08;96880.78;5056899;28;20066;-86
2021/04/03 01:46:09;;;;;;;23.40;14.13;;;;;;;11.86;81.99;96875.16;5074754;28;20031;-87
2021/04/03 01:48:37;;;;;;;22.17;10.98;;;;;;;11.98;80.11;96873.34;5056225;28;20114;-87
2021/04/03 01:51:03;;;;;;;21.02;13.05;;;;;;;12.01;81.66;96866.91;5076135;28;20024;-85
2021/04/03 01:53:29;;;;;;;22.65;11.35;;;;;;;12.05;81.28;96873.72;5060349;28;20032;-85
2021/04/03 01:55:56;;;;;;;24.33;10.70;;;;;;;12.01;79.89;96869.56;5077314;28;20055;-86
2021/04/03 01:58:22;;;;;;;24.50;12.38;;;;;;;12.07;81.66;96871.78;5060439;28;20028;-85
2021/04/03 02:00:47;;;;;;;22.05;13.20;;;;;;;12.02;82.60;96863.25;5060319;28;20024;-86
2021/04/03 02:03:13;;;;;;;21.33;12.70;;;;;;;11.87;83.37;96865.31;5060662;28;20407;-86
2021/04/03 02:05:40;;;;;;;27.13;13.90;;;;;;;11.75;85.47;96863.59;5060132;28;20028;-86
2021/04/03 02:08:07;;;;;;;22.33;13.95;;;;;;;11.65;85.27;96866.09;5060157;28;20032;-86
2021/04/03 02:10:33;;;;;;;22.33;13.82;;;;;;;11.52;86.48;96856.41;5076523;28;20419;-85
2021/04/03 02:13:00;;;;;;;24.48;12.98;;;;;;;11.44;85.77;96860.53;5076503;28;20032;-85
2021/04/03 02:15:27;;;;;;;28.10;12.80;;;;;;;11.39;85.94;96861.84;5076938;28;20411;-86
2021/04/03 02:17:56;;;;;;;25.98;13.50;;;;;;;11.19;85.79;96847.31;5059629;28;20506;-86
2021/04/03 02:20:21;;;;;;;27.33;12.70;;;;;;;11.13;85.67;96842.44;5060084;28;20549;-86
2021/04/03 02:22:47;;;;;;;26.20;15.07;;;;;;;11.19;85.61;96849.13;5059552;28;20028;-86
2021/04/03 02:25:14;;;;;;;24.85;13.98;;;;;;;11.17;85.81;96846.56;5076446;28;20410;-85
2021/04/03 02:27:41;;;;;;;21.30;13.25;;;;;;;11.18;85.76;96853.63;5076486;28;20031;-85
2021/04/03 02:30:12;;;;;;;24.45;13.50;;;;;;;11.12;85.92;96843.41;5059762;28;20024;-85
2021/04/03 02:32:53;;;;;;;24.20;12.85;;;;;;;11.08;86.78;96849.94;5059745;28;20138;-83
2021/04/03 02:35:20;;;;;;;27.63;13.18;;;;;;;11.13;87.05;96837.09;5060122;28;20051;-85
2021/04/03 02:37:47;;;;;;;21.55;13.07;;;;;;;11.13;87.78;96834.41;5059265;28;20028;-86
2021/04/03 02:40:16;;;;;;;28.17;13.88;;;;;;;11.14;86.80;96832.56;5076246;28;20027;-85
2021/04/03 02:43:02;;;;;;;24.13;13.88;;;;;;;11.24;85.81;96836.25;5059014;28;20050;-86
2021/04/03 02:45:35;;;;;;;24.33;12.63;;;;;;;11.21;84.13;96828.47;5076769;28;20028;-85
2021/04/03 02:48:16;;;;;;;20.45;11.57;;;;;;;11.27;84.35;96828.84;5075999;28;20069;-86
2021/04/03 02:50:42;;;;;;;26.27;13.20;;;;;;;11.25;84.15;96819.22;5059816;28;20027;-86
2021/04/03 02:53:12;;;;;;;28.05;13.25;;;;;;;11.34;84.63;96821.19;5075938;28;20031;-86
2021/04/03 02:55:42;;;;;;;31.48;17.00;;;;;;;11.33;84.46;96812.31;5059113;28;20117;-86
2021/04/03 02:58:09;;;;;;;27.40;14.15;;;;;;;11.42;83.06;96814.28;5076455;28;20024;-86
2021/04/03 03:00:35;;;;;;;20.35;12.93;;;;;;;11.44;81.86;96798.94;5075271;28;20020;-85
2021/04/03 03:03:01;;;;;;;33.92;15.13;;;;;;;11.51;83.33;96806.50;5076056;28;20092;-85
2021/04/03 03:05:27;;;;;;;36.60;14.20;;;;;;;11.43;84.60;96818.69;5059191;28;20028;-86
2021/04/03 03:07:53;;;;;;;25.80;13.30;;;;;;;11.36;85.10;96805.88;5058874;28;20028;-85
2021/04/03 03:10:19;;;;;;;32.22;16.25;;;;;;;11.34;85.61;96805.13;5058954;28;20074;-86
2021/04/03 03:12:46;;;;;;;36.45;16.02;;;;;;;11.34;85.55;96813.16;5058387;28;20085;-86
2021/04/03 03:15:17;;;;;;;26.05;13.90;;;;;;;11.36;84.47;96803.19;5058966;28;20028;-87
2021/04/03 03:17:44;;;;;;;23.92;14.30;;;;;;;11.40;84.65;96810.03;5075637;28;20024;-86
2021/04/03 03:20:12;;;;;;;25.95;12.90;;;;;;;11.33;85.57;96793.56;5058719;28;20024;-84
2021/04/03 03:22:38;;;;;;;26.42;12.30;;;;;;;11.37;85.93;96800.41;5058073;28;20023;-86
2021/04/03 03:25:05;;;;;;;26.67;11.82;;;;;;;11.33;86.50;96792.72;5058633;28;20470;-87
2021/04/03 03:27:30;;;;;;;47.75;17.05;;;;;;;11.37;86.09;96808.44;5075855;28;20039;-86
2021/04/03 03:29:57;;;;;;;29.35;12.60;;;;;;;11.31;86.79;96802.69;5058541;28;20027;-87
2021/04/03 03:32:23;;;;;;;20.98;12.45;;;;;;;11.22;86.68;96806.94;5058921;28;20468;-87
2021/04/03 03:34:48;;;;;;;25.60;12.38;;;;;;;11.14;86.43;96800.44;5075067;28;20028;-86
2021/04/03 03:37:14;;;;;;;21.05;10.50;;;;;;;11.14;86.37;96805.78;5058646;28;20082;-88
2021/04/03 03:39:40;;;;;;;23.92;11.63;;;;;;;11.04;86.82;96800.31;5058871;28;20028;-86
2021/04/03 03:42:07;;;;;;;21.98;11.48;;;;;;;11.07;86.28;96799.22;5058518;28;20046;-86
2021/04/03 03:44:32;;;;;;;20.42;11.25;;;;;;;11.06;86.89;96803.72;5058405;28;20081;-87
2021/04/03 03:46:58;;;;;;;18.00;11.10;;;;;;;11.10;86.34;96801.66;5058577;28;20020;-86
2021/04/03 03:49:23;;;;;;;19.38;10.95;;;;;;;11.15;86.30;96810.19;5058489;28;20020;-86
2021/04/03 03:51:49;;;;;;;23.17;12.43;;;;;;;11.17;85.39;96802.88;5057860;28;20114;-86
2021/04/03 03:54:14;;;;;;;19.85;11.35;;;;;;;11.25;85.08;96809.38;5058380;28;20023;-87
2021/04/03 03:56:40;;;;;;;23.45;12.65;;;;;;;11.22;84.97;96800.72;5041818;28;20028;-85
2021/04/03 03:59:06;;;;;;;23.73;12.70;;;;;;;11.32;83.95;96804.41;5057831;28;20020;-85
2021/04/03 04:01:31;;;;;;;21.45;12.05;;;;;;;11.33;84.06;96804.28;5074770;28;20035;-85
2021/04/03 04:03:57;;;;;;;19.15;12.15;;;;;;;11.45;84.80;96807.84;5058090;28;20032;-85
2021/04/03 04:06:23;;;;;;;19.60;11.93;;;;;;;11.46;84.61;96812.22;5043405;28;20602;-86
2021/04/03 04:08:48;;;;;;;21.20;10.98;;;;;;;11.52;85.54;96821.59;5037717;28;20098;-85
2021/04/03 04:11:14;;;;;;;18.65;10.40;;;;;;;11.47;83.91;96807.72;5037938;28;20399;-86
2021/04/03 04:13:40;;;;;;;20.70;11.77;;;;;;;11.47;83.75;96827.34;5053625;28;20537;-85
2021/04/03 04:16:05;;;;;;;23.98;13.63;;;;;;;11.37;84.27;96819.16;5041263;28;20110;-85
2021/04/03 04:18:31;;;;;;;24.73;13.15;;;;;;;11.23;85.82;96823.81;5074560;28;20026;-86
2021/04/03 04:20:57;;;;;;;20.30;13.30;;;;;;;11.34;86.31;96830.09;5055394;28;20024;-85
2021/04/03 04:23:23;;;;;;;36.67;18.35;;;;;;;11.26;85.85;96821.78;5043416;28;20024;-86
2021/04/03 04:25:49;;;;;;;53.28;28.38;;;;;;;11.35;85.66;96820.25;5049177;28;20077;-85
2021/04/03 04:28:14;;;;;;;56.03;27.85;;;;;;;11.34;85.00;96819.38;5075104;28;20056;-86
2021/04/03 04:30:40;;;;;;;35.92;18.67;;;;;;;11.37;84.76;96813.78;5059563;28;20024;-86
2021/04/03 04:33:05;;;;;;;42.00;20.40;;;;;;;11.30;85.63;96814.38;5076493;28;20032;-86
2021/04/03 04:35:31;;;;;;;46.67;23.17;;;;;;;11.36;85.04;96820.09;5061260;28;20525;-86
2021/04/03 04:37:57;;;;;;;34.53;19.63;;;;;;;11.40;85.65;96813.56;5050579;28;20061;-86
2021/04/03 04:40:22;;;;;;;37.67;21.33;;;;;;;11.49;85.82;96821.84;5044112;28;20430;-86
2021/04/03 04:42:50;;;;;;;39.92;19.77;;;;;;;11.66;84.36;96816.06;5037944;28;20024;-86
2021/04/03 04:45:16;;;;;;;38.17;21.00;;;;;;;11.74;85.29;96824.38;5037855;28;20029;-86
2021/04/03 04:47:41;;;;;;;42.50;22.52;;;;;;;11.94;83.53;96831.66;5038279;28;20031;-86
2021/04/03 04:50:08;;;;;;;34.65;18.95;;;;;;;12.12;82.73;96822.16;5056783;28;20024;-86
2021/04/03 04:52:34;;;;;;;39.58;19.55;;;;;;;12.25;82.50;96836.31;5057411;28;20059;-84
2021/04/03 04:55:00;;;;;;;34.55;17.60;;;;;;;12.45;81.51;96829.34;5045876;28;20198;-87
2021/04/03 04:57:26;;;;;;;38.75;21.80;;;;;;;12.77;78.93;96832.94;5092735;28;20544;-87
2021/04/03 04:59:52;;;;;;;35.72;20.05;;;;;;;13.01;76.64;96822.03;5057357;28;20028;-87
2021/04/03 05:02:18;;;;;;;34.03;18.65;;;;;;;13.33;74.96;96828.25;5057515;28;20032;-87
2021/04/03 05:04:43;;;;;;;28.73;16.67;;;;;;;13.53;73.07;96835.47;5057933;28;20161;-87
2021/04/03 05:07:09;;;;;;;28.10;15.02;;;;;;;13.55;73.23;96833.50;5075479;28;20039;-87
2021/04/03 05:09:34;;;;;;;25.63;14.32;;;;;;;13.41;73.12;96823.06;5057921;28;20036;-87
2021/04/03 05:12:03;;;;;;;28.58;14.70;;;;;;;13.69;73.34;96840.38;5056636;28;20127;-87
2021/04/03 05:14:30;;;;;;;25.42;15.20;;;;;;;14.13;71.03;96833.84;5057884;28;20024;-77
2021/04/03 05:16:55;;;;;;;34.58;18.58;;;;;;;14.20;69.90;96832.34;5057445;28;20472;-84
2021/04/03 05:19:21;;;;;;;35.63;16.95;;;;;;;14.16;71.01;96830.88;5057424;28;20028;-84
2021/04/03 05:21:47;;;;;;;30.13;17.25;;;;;;;14.82;68.86;96842.91;5077206;28;20028;-86
2021/04/03 05:24:12;;;;;;;21.88;13.35;;;;;;;15.56;65.85;96849.53;5074992;28;20035;-84
2021/04/03 05:26:38;;;;;;;20.25;12.13;;;;;;;16.36;61.70;96849.09;5061027;28;20492;-86
2021/04/03 05:29:03;;;;;;;26.50;10.88;;;;;;;17.46;57.63;96850.75;5058221;28;20032;-85
2021/04/03 05:31:29;;;;;;;23.23;11.18;;;;;;;18.55;53.98;96852.13;5057790;28;20036;-86
2021/04/03 05:33:55;;;;;;;22.63;10.55;;;;;;;19.72;49.59;96857.41;5075110;28;20042;-86
2021/04/03 05:36:20;;;;;;;18.15;10.20;;;;;;;20.42;45.95;96860.50;5059004;28;20036;-87
2021/04/03 05:38:46;;;;;;;18.23;8.88;;;;;;;21.29;43.63;96848.63;5062163;28;20031;-87
2021/04/03 05:41:11;;;;;;;22.23;10.13;;;;;;;22.06;42.40;96863.94;5058327;28;20090;-86
2021/04/03 05:43:38;;;;;;;24.13;10.88;;;;;;;22.45;40.89;96869.22;5052910;28;20090;-86
2021/04/03 05:46:04;;;;;;;17.67;11.27;;;;;;;22.52;41.51;96864.69;5058505;28;20407;-86
2021/04/03 05:48:30;;;;;;;12.25;8.10;;;;;;;23.15;40.17;96870.50;5074457;28;20056;-86
2021/04/03 05:50:59;;;;;;;23.30;8.13;;;;;;;22.01;42.13;96867.22;5058299;28;20019;-86
2021/04/03 05:53:26;;;;;;;13.00;8.95;;;;;;;20.80;43.38;96859.69;5060582;28;20133;-87
2021/04/03 05:55:56;;;;;;;19.92;9.07;;;;;;;21.29;43.88;96857.63;5056786;28;20056;-74
2021/04/03 05:58:21;;;;;;;23.08;8.38;;;;;;;23.22;39.33;96855.03;5074599;28;20027;-86
2021/04/03 06:00:47;;;;;;;16.63;9.23;;;;;;;24.27;37.93;96871.81;5052028;28;20032;-86
2021/04/03 06:03:16;;;;;;;24.90;13.27;;;;;;;24.62;36.56;96867.25;5055039;28;20118;-85
2021/04/03 06:05:43;;;;;;;24.25;9.73;;;;;;;24.09;37.21;96868.66;5092388;28;20032;-83
2021/04/03 06:08:09;;;;;;;28.65;12.25;;;;;;;23.28;38.43;96858.06;5057197;28;20035;-83
2021/04/03 06:10:34;;;;;;;26.35;13.30;;;;;;;21.76;41.79;96865.69;5052836;28;20038;-84
2021/04/03 06:13:00;;;;;;;28.83;14.10;;;;;;;21.16;43.37;96848.38;5057906;28;20032;-87
2021/04/03 06:15:29;;;;;;;29.30;10.95;;;;;;;20.61;44.98;96859.25;5058617;28;20143;-77
2021/04/03 06:17:55;;;;;;;25.50;11.23;;;;;;;20.15;45.24;96852.69;5091826;28;20111;-86
2021/04/03 06:20:34;;;;;;;24.52;10.18;;;;;;;19.52;46.89;96852.50;5084382;28;20037;-86
2021/04/03 06:23:01;;;;;;;20.15;9.98;;;;;;;19.10;48.10;96847.13;5086699;28;20028;-85
2021/04/03 06:25:26;;;;;;;30.13;12.02;;;;;;;19.27;48.18;96862.41;5053370;28;20028;-87
2021/04/03 06:28:10;;;;;;;24.50;11.32;;;;;;;21.01;45.08;96873.53;5074036;28;20115;-86
2021/04/03 06:30:38;;;;;;;49.10;15.13;;;;;;;22.99;42.40;96875.31;5074114;28;20016;-87
2021/04/03 06:33:16;;;;;;;45.33;14.75;;;;;;;24.58;38.47;96864.06;5051424;28;20028;-86
2021/04/03 06:35:43;;;;;;;53.70;13.65;;;;;;;25.87;35.64;96866.06;5050359;28;20154;-87
2021/04/03 06:38:24;;;;;;;21.13;10.45;;;;;;;26.80;33.60;96882.41;5058857;28;20039;-86
2021/04/03 06:40:50;;;;;;;30.35;11.25;;;;;;;27.21;31.74;96871.16;5055711;28;20051;-87
2021/04/03 06:43:17;;;;;;;23.35;13.50;;;;;;;26.73;33.14;96877.97;5057620;28;20471;-86
2021/04/03 06:45:44;;;;;;;29.90;12.00;;;;;;;27.18;32.11;96873.47;5059102;28;20028;-87
2021/04/03 06:48:12;;;;;;;20.25;8.65;;;;;;;27.69;30.08;96862.53;5059090;28;20081;-87
2021/04/03 06:50:45;;;;;;;19.25;7.05;;;;;;;28.36;28.81;96868.28;5066068;28;20031;-87
2021/04/03 06:53:13;;;;;;;13.30;4.70;;;;;;;28.81;28.23;96869.00;5054464;28;20036;-88
2021/04/03 06:55:40;;;;;;;9.60;4.47;;;;;;;28.01;27.68;96858.78;5056327;28;20059;-89
2021/04/03 06:58:06;;;;;;;16.63;7.93;;;;;;;28.13;28.05;96861.69;5070038;28;20094;-90
2021/04/03 07:00:34;;;;;;;11.50;6.10;;;;;;;28.80;27.24;96858.22;5056424;28;20035;-88
2021/04/03 07:03:01;;;;;;;13.10;7.05;;;;;;;27.58;28.13;96858.56;5065720;28;20084;-86
2021/04/03 07:05:32;;;;;;;11.43;7.05;;;;;;;26.88;30.50;96867.66;5093815;28;20031;-88
2021/04/03 07:07:59;;;;;;;17.08;7.00;;;;;;;26.51;30.28;96871.00;5057538;28;20450;-88
2021/04/03 07:10:27;;;;;;;12.30;6.50;;;;;;;25.86;30.34;96861.63;5073085;28;20396;-87
2021/04/03 07:12:54;;;;;;;13.80;6.75;;;;;;;25.05;31.82;96873.47;5074878;28;20056;-87
2021/04/03 07:15:20;;;;;;;13.63;7.40;;;;;;;23.31;34.95;96874.06;5056978;28;20032;-87
2021/04/03 07:17:45;;;;;;;23.48;8.25;;;;;;;22.13;36.58;96868.50;5056523;28;20058;-87
2021/04/03 07:20:17;;;;;;;13.00;7.28;;;;;;;21.41;39.58;96875.25;5089992;28;20552;-87
2021/04/03 07:22:45;;;;;;;14.95;6.63;;;;;;;20.87;38.86;96852.53;5057746;28;20411;-88
2021/04/03 07:25:12;;;;;;;19.15;8.70;;;;;;;20.15;41.80;96869.81;5089917;28;20044;-87
2021/04/03 07:27:43;;;;;;;13.52;7.63;;;;;;;19.84;44.67;96856.06;5056377;28;20040;-87
2021/04/03 07:30:09;;;;;;;15.70;8.10;;;;;;;19.63;44.89;96863.88;5090275;28;20040;-88
2021/04/03 07:32:44;;;;;;;18.67;7.40;;;;;;;19.03;46.47;96854.19;5055902;28;20024;-88
2021/04/03 07:35:21;;;;;;;13.13;7.30;;;;;;;18.87;46.50;96855.84;5074390;28;20491;-88
2021/04/03 07:37:48;;;;;;;10.88;7.55;;;;;;;18.75;47.40;96862.56;5057451;28;20551;-87
2021/04/03 07:40:34;;;;;;;14.05;7.65;;;;;;;18.62;48.22;96864.00;5060266;28;20039;-87
2021/04/03 07:43:00;;;;;;;18.83;8.10;;;;;;;18.73;48.38;96867.31;5080713;28;20384;-87
2021/04/03 07:45:33;;;;;;;19.58;7.70;;;;;;;18.81;48.23;96877.31;5058026;28;20177;-87
2021/04/03 07:47:59;;;;;;;14.88;7.75;;;;;;;18.95;47.65;96872.13;5064672;28;20027;-88
2021/04/03 07:50:40;;;;;;;18.88;7.47;;;;;;;18.89;47.83;96874.63;5050304;28;20028;-88
2021/04/03 07:53:06;;;;;;;12.85;8.18;;;;;;;18.85;49.16;96867.84;5069586;28;20111;-87
2021/04/03 07:55:36;;;;;;;12.77;8.07;;;;;;;18.71;48.20;96863.88;5056107;28;20048;-87
2021/04/03 07:58:19;;;;;;;20.38;7.45;;;;;;;18.93;47.97;96874.16;5074004;28;20024;-88
2021/04/03 08:00:46;;;;;;;12.70;7.72;;;;;;;19.28;46.81;96873.09;5072940;28;20050;-85
2021/04/03 08:03:11;;;;;;;17.50;8.90;;;;;;;19.38;47.84;96864.81;5056349;28;20051;-85
2021/04/03 08:05:39;;;;;;;15.38;9.10;;;;;;;19.91;46.30;96873.38;5072713;28;20032;-86
2021/04/03 08:08:08;;;;;;;18.80;8.30;;;;;;;20.15;45.39;96871.72;5055459;28;20031;-86
2021/04/03 08:10:34;;;;;;;24.17;10.00;;;;;;;20.05;45.32;96877.31;5055380;28;20510;-86
2021/04/03 08:13:00;;;;;;;22.45;7.55;;;;;;;20.42;43.71;96879.50;5055782;28;20070;-88
2021/04/03 08:15:26;;;;;;;18.80;8.30;;;;;;;20.25;43.83;96870.50;5072748;28;20032;-88
2021/04/03 08:17:53;;;;;;;12.45;7.32;;;;;;;20.88;42.17;96872.44;5055640;28;20028;-87
2021/04/03 08:20:19;;;;;;;20.88;7.93;;;;;;;21.18;42.22;96870.78;5056201;28;20032;-86
2021/04/03 08:23:01;;;;;;;20.27;10.40;;;;;;;21.66;41.47;96859.63;5055768;28;20056;-86
2021/04/03 08:25:27;;;;;;;13.10;8.18;;;;;;;22.26;41.43;96870.59;5056209;28;20403;-87
2021/04/03 08:27:52;;;;;;;13.90;7.32;;;;;;;23.53;38.30;96871.22;5055523;28;20036;-86
2021/04/03 08:30:28;;;;;;;14.30;7.90;;;;;;;23.95;36.82;96867.69;5055464;28;20028;-85
2021/04/03 08:33:11;;;;;;;15.68;7.90;;;;;;;23.58;36.41;96873.38;5055022;28;20032;-86
2021/04/03 08:35:38;;;;;;;11.05;7.18;;;;;;;23.60;37.25;96863.09;5055579;28;20034;-86
2021/04/03 08:38:19;;;;;;;14.57;7.47;;;;;;;23.30;36.99;96853.25;5056107;28;20024;-87
2021/04/03 08:40:45;;;;;;;23.00;9.00;;;;;;;24.49;35.05;96862.53;5055729;28;20024;-87
2021/04/03 08:43:22;;;;;;;9.63;6.50;;;;;;;24.99;33.57;96866.91;5055020;28;20028;-86
2021/04/03 08:45:49;;;;;;;15.80;7.60;;;;;;;27.05;31.33;96862.53;5056070;28;20035;-86
2021/04/03 08:48:15;;;;;;;11.32;7.03;;;;;;;26.82;30.65;96849.28;5055299;28;20480;-86
2021/04/03 08:50:42;;;;;;;12.13;6.50;;;;;;;27.06;30.93;96851.34;5054972;28;20054;-86
2021/04/03 08:53:08;;;;;;;13.10;6.78;;;;;;;26.52;31.28;96835.13;5053735;28;20024;-86
2021/04/03 08:55:33;;;;;;;10.98;6.90;;;;;;;25.63;31.43;96828.25;5054307;28;20499;-84
2021/04/03 08:58:01;;;;;;;10.73;6.70;;;;;;;26.33;31.45;96836.81;5039015;28;20021;-86
2021/04/03 09:00:27;;;;;;;11.35;6.45;;;;;;;26.81;30.66;96836.59;5033900;28;20155;-86
2021/04/03 09:02:53;;;;;;;8.02;6.45;;;;;;;27.44;29.97;96824.81;5034085;28;20035;-86
2021/04/03 09:05:19;;;;;;;17.73;6.63;;;;;;;27.89;28.49;96814.63;5051790;28;20027;-87
2021/04/03 09:07:45;;;;;;;12.07;6.20;;;;;;;27.92;28.47;96805.94;5065778;28;20047;-85
2021/04/03 09:10:15;;;;;;;10.00;6.85;;;;;;;27.45;28.58;96810.00;5064261;28;20517;-85
2021/04/03 09:12:42;;;;;;;7.90;6.20;;;;;;;26.95;28.90;96819.03;5048704;28;20032;-85
2021/04/03 09:15:08;;;;;;;11.70;6.32;;;;;;;26.68;29.64;96812.72;5054037;28;20177;-85
2021/04/03 09:17:35;;;;;;;9.25;6.25;;;;;;;28.96;26.65;96808.91;5054491;28;20161;-86
2021/04/03 09:20:23;;;;;;;13.15;5.93;;;;;;;28.95;26.11;96803.59;5046766;28;20035;-87
2021/04/03 09:22:54;;;;;;;11.43;6.35;;;;;;;28.09;26.78;96800.75;5034694;28;20523;-86
2021/04/03 09:25:29;;;;;;;13.40;6.40;;;;;;;26.57;29.94;96791.44;5062832;28;20019;-85
2021/04/03 09:28:02;;;;;;;12.32;6.78;;;;;;;26.58;29.97;96811.50;5054972;28;20039;-86
2021/04/03 09:30:36;;;;;;;11.18;6.65;;;;;;;27.91;28.26;96798.75;5035014;28;20040;-86
2021/04/03 09:33:25;;;;;;;14.48;6.53;;;;;;;29.10;27.32;96793.09;5033879;28;20064;-85
2021/04/03 09:35:52;;;;;;;10.55;5.78;;;;;;;29.14;26.02;96788.78;5070837;28;20115;-86
2021/04/03 09:38:37;;;;;;;10.05;6.05;;;;;;;28.82;26.60;96778.97;5054588;28;20407;-86
2021/04/03 09:41:23;;;;;;;11.23;6.50;;;;;;;27.86;27.43;96779.34;5051963;28;20089;-86
2021/04/03 09:43:49;;;;;;;10.18;6.43;;;;;;;25.91;30.11;96781.50;5061532;28;20036;-85
2021/04/03 09:46:15;;;;;;;14.38;6.47;;;;;;;25.62;30.92;96793.69;5053840;28;20114;-86
2021/04/03 09:48:42;;;;;;;9.95;7.00;;;;;;;26.08;30.71;96794.59;5065205;28;20028;-86
2021/04/03 09:51:08;;;;;;;32.08;7.78;;;;;;;26.44;30.34;96793.34;5050088;28;20024;-86
2021/04/03 09:53:34;;;;;;;12.32;8.73;;;;;;;27.18;28.25;96780.09;5041145;28;20399;-86
2021/04/03 09:56:00;;;;;;;10.48;6.63;;;;;;;28.53;26.59;96786.84;5049820;28;20048;-86
2021/04/03 09:58:25;;;;;;;7.63;6.20;;;;;;;29.28;25.37;96751.78;5053150;28;20449;-86
2021/04/03 10:00:52;;;;;;;17.73;6.63;;;;;;;28.55;25.98;96745.31;5053810;28;20020;-85
2021/04/03 10:03:17;;;;;;;18.98;8.20;;;;;;;27.97;27.97;96766.78;5070077;28;20027;-85
2021/04/03 10:05:43;;;;;;;16.90;9.32;;;;;;;27.02;29.28;96762.22;5086991;28;20466;-85
2021/04/03 10:08:08;;;;;;;22.17;11.55;;;;;;;26.27;30.83;96766.34;5054102;28;20068;-86
2021/04/03 10:10:34;;;;;;;15.52;9.23;;;;;;;25.18;32.15;96759.41;5054070;28;20046;-86
2021/04/03 10:13:00;;;;;;;11.55;8.25;;;;;;;24.63;32.80;96749.44;5056539;28;20042;-86
2021/04/03 10:15:28;;;;;;;17.52;7.90;;;;;;;23.98;33.74;96757.16;5056756;28;20027;-86
2021/04/03 10:17:54;;;;;;;13.57;7.50;;;;;;;23.43;34.98;96760.63;5056626;28;20505;-85
2021/04/03 10:20:20;;;;;;;10.35;6.63;;;;;;;23.79;34.50;96753.22;5089905;28;20036;-85
2021/04/03 10:22:46;;;;;;;12.70;6.85;;;;;;;23.81;34.88;96747.56;5072965;28;20047;-85
2021/04/03 10:25:13;;;;;;;10.95;7.28;;;;;;;23.84;34.54;96745.25;5090193;28;20035;-85
2021/04/03 10:27:38;;;;;;;9.82;6.05;;;;;;;24.34;33.71;96732.41;5056205;28;20531;-85
2021/04/03 10:30:05;;;;;;;20.83;5.93;;;;;;;25.29;32.43;96728.69;5056500;28;20032;-85
2021/04/03 10:32:31;;;;;;;8.77;5.57;;;;;;;26.58;30.28;96729.19;5073398;28;20036;-86
2021/04/03 10:34:56;;;;;;;9.20;6.05;;;;;;;28.46;28.19;96711.75;5056937;28;20024;-86
2021/04/03 10:37:22;;;;;;;13.07;6.45;;;;;;;30.25;25.98;96697.25;5089964;28;20032;-86
2021/04/03 10:39:47;;;;;;;12.48;7.10;;;;;;;29.75;24.76;96703.16;5073846;28;20063;-86
2021/04/03 10:42:13;;;;;;;23.85;11.50;;;;;;;28.83;25.54;96703.53;5056492;28;20043;-80
2021/04/03 10:44:39;;;;;;;10.15;6.88;;;;;;;27.80;27.41;96719.75;5074696;28;20391;-80
2021/04/03 10:47:05;;;;;;;10.82;5.97;;;;;;;26.50;29.13;96713.78;5058355;28;20054;-80
2021/04/03 10:49:31;;;;;;;17.33;7.63;;;;;;;26.88;28.58;96702.94;5061469;28;20031;-88
2021/04/03 10:51:57;;;;;;;29.42;17.77;;;;;;;25.78;29.91;96694.63;5066266;28;20121;-85
2021/04/03 10:54:23;;;;;;;16.13;9.07;;;;;;;26.45;28.88;96699.03;5055295;28;20078;-85
2021/04/03 10:56:49;;;;;;;11.82;6.78;;;;;;;27.74;27.68;96709.66;5056627;28;20632;-83
2021/04/03 10:59:15;;;;;;;14.30;8.10;;;;;;;27.99;28.61;96702.22;5057708;28;20496;-85
2021/04/03 11:01:41;;;;;;;14.55;7.45;;;;;;;28.22;28.36;96696.13;5056620;28;20031;-88
2021/04/03 11:04:06;;;;;;;19.80;13.50;;;;;;;28.64;28.54;96688.09;5056933;28;20039;-87
2021/04/03 11:06:32;;;;;;;17.60;10.38;;;;;;;28.75;28.19;96696.44;5056869;28;20036;-87
2021/04/03 11:09:00;;;;;;;13.57;7.25;;;;;;;27.82;28.60;96695.63;5073749;28;20411;-86
2021/04/03 11:11:25;;;;;;;18.45;8.07;;;;;;;27.04;29.88;96696.91;5090281;28;20028;-92
2021/04/03 11:13:51;;;;;;;12.70;6.88;;;;;;;25.76;31.26;96697.59;5074631;28;20040;-79
2021/04/03 11:16:16;;;;;;;14.30;6.78;;;;;;;24.83;33.31;96708.50;5057574;28;20028;-79
2021/04/03 11:18:42;;;;;;;10.15;6.13;;;;;;;23.55;35.14;96713.50;5058187;28;20034;-78
2021/04/03 11:21:08;;;;;;;36.03;7.80;;;;;;;22.26;38.35;96719.88;5074508;28;20028;-77
2021/04/03 11:23:34;;;;;;;15.77;7.45;;;;;;;21.92;41.36;96742.19;5057679;28;20031;-77
2021/04/03 11:25:59;;;;;;;17.98;12.15;;;;;;;20.87;44.65;96746.50;5058094;28;20031;-78